Time;durP1;ratioP1;P1;durP2;ratioP2;P2;SDS_P1;SDS_P2;PMS_P1;PMS_P2;Temp;Humidity;BMP_temperature;BMP_pressure;BME280_temperature;BME280_humidity;BME280_pressure;Samples;Min_cycle;Max_cycle;Signal;HPM_P1;HPM_P2
2022/04/13 00:00:29;;;;;;;27.95;14.73;;;9.90;1.00;;;;;;5049964;28;20018;-82
2022/04/13 00:02:55;;;;;;;29.33;14.57;;;9.90;1.00;;;;;;5048623;28;20056;-83
2022/04/13 00:05:21;;;;;;;25.13;14.65;;;9.90;1.00;;;;;;5032770;28;20057;-83
2022/04/13 00:07:47;;;;;;;25.95;15.90;;;9.90;1.00;;;;;;5029033;28;20025;-83
2022/04/13 00:10:13;;;;;;;23.38;15.10;;;9.90;1.00;;;;;;5031985;28;20198;-83
2022/04/13 00:12:38;;;;;;;23.38;14.50;;;9.80;1.00;;;;;;5040008;28;20093;-82
2022/04/13 00:15:06;;;;;;;26.20;15.70;;;9.70;1.00;;;;;;5035218;28;20055;-83
2022/04/13 00:17:32;;;;;;;25.50;15.38;;;9.70;1.00;;;;;;5036414;28;20017;-83
2022/04/13 00:19:58;;;;;;;25.20;14.43;;;9.70;1.00;;;;;;5031076;28;20072;-82
2022/04/13 00:22:24;;;;;;;24.83;15.75;;;9.70;1.00;;;;;;5036794;28;20068;-84
2022/04/13 00:24:50;;;;;;;27.33;15.38;;;9.70;1.00;;;;;;5029792;28;20022;-84
2022/04/13 00:27:16;;;;;;;27.30;15.60;;;9.70;1.00;;;;;;5037172;28;20026;-83
2022/04/13 00:29:42;;;;;;;22.77;14.38;;;9.70;1.00;;;;;;5051789;28;20044;-83
2022/04/13 00:32:15;;;;;;;22.45;14.90;;;9.70;1.00;;;;;;5044255;28;20077;-83
2022/04/13 00:34:41;;;;;;;27.45;15.80;;;9.70;1.00;;;;;;5034154;28;20489;-83
2022/04/13 00:37:07;;;;;;;27.13;14.63;;;9.70;1.00;;;;;;5042135;28;20026;-83
2022/04/13 00:39:33;;;;;;;27.17;15.43;;;9.70;1.00;;;;;;5034385;28;20065;-83
2022/04/13 00:42:01;;;;;;;24.88;15.00;;;9.70;1.00;;;;;;5052085;28;20034;-83
2022/04/13 00:44:28;;;;;;;26.80;15.73;;;9.70;1.00;;;;;;5054437;28;20045;-83
2022/04/13 00:46:54;;;;;;;27.08;16.23;;;9.80;1.00;;;;;;5054135;28;20029;-83
2022/04/13 00:49:20;;;;;;;25.52;15.35;;;10.00;1.00;;;;;;5041564;28;20025;-83
2022/04/13 00:51:46;;;;;;;34.20;16.27;;;10.10;1.00;;;;;;5034570;28;20006;-83
2022/04/13 00:54:13;;;;;;;28.00;16.63;;;10.20;1.00;;;;;;5043066;28;20018;-84
2022/04/13 00:56:41;;;;;;;28.95;16.10;;;10.10;1.00;;;;;;5038779;28;20021;-83
2022/04/13 00:59:10;;;;;;;30.35;16.10;;;10.20;1.00;;;;;;5052337;28;20380;-83
2022/04/13 01:01:37;;;;;;;32.05;17.08;;;10.20;1.00;;;;;;5045254;28;20001;-83
2022/04/13 01:04:04;;;;;;;34.00;18.30;;;10.40;5.30;;;;;;5035785;28;20274;-83
2022/04/13 01:06:31;;;;;;;29.23;16.15;;;10.40;1.00;;;;;;5044677;28;20077;-83
2022/04/13 01:08:58;;;;;;;29.20;16.65;;;10.40;1.00;;;;;;5044432;28;20026;-83
2022/04/13 01:11:26;;;;;;;28.30;16.33;;;10.50;1.00;;;;;;5037109;28;20534;-84
2022/04/13 01:13:56;;;;;;;27.80;15.82;;;10.50;1.00;;;;;;5044328;23;20061;-82
2022/04/13 01:16:23;;;;;;;25.10;15.18;;;10.60;1.00;;;;;;4996859;28;20054;-82
2022/04/13 01:18:49;;;;;;;26.23;15.02;;;10.60;1.00;;;;;;4997054;28;20025;-82
2022/04/13 01:21:17;;;;;;;28.10;14.68;;;10.70;1.00;;;;;;4995019;28;20093;-82
2022/04/13 01:23:43;;;;;;;26.45;14.88;;;10.70;1.00;;;;;;4995234;28;20029;-82
2022/04/13 01:26:12;;;;;;;22.40;12.85;;;10.70;1.00;;;;;;4996813;28;20023;-82
2022/04/13 01:28:54;;;;;;;21.73;12.68;;;10.70;1.00;;;;;;5002903;28;20109;-82
2022/04/13 01:31:19;;;;;;;20.17;12.23;;;10.80;1.00;;;;;;4996999;28;20046;-82
2022/04/13 01:33:47;;;;;;;23.10;11.90;;;10.80;1.00;;;;;;4989007;28;20083;-82
2022/04/13 01:36:12;;;;;;;20.58;12.00;;;10.90;1.00;;;;;;4974317;28;20034;-82
2022/04/13 01:38:38;;;;;;;21.95;11.25;;;11.00;1.00;;;;;;4984022;28;20026;-81
2022/04/13 01:41:03;;;;;;;19.23;10.65;;;11.00;1.00;;;;;;5014485;28;20025;-81
2022/04/13 01:43:29;;;;;;;19.08;10.52;;;11.10;1.00;;;;;;5015329;28;20072;-82
2022/04/13 01:45:55;;;;;;;19.52;10.25;;;11.10;1.00;;;;;;4995483;28;20023;-82
2022/04/13 01:48:21;;;;;;;18.15;9.75;;;11.20;1.00;;;;;;4995791;28;20110;-82
2022/04/13 01:50:46;;;;;;;20.55;11.02;;;11.30;1.00;;;;;;4994850;28;20120;-81
2022/04/13 01:53:12;;;;;;;21.60;11.88;;;11.30;1.00;;;;;;4994071;28;20038;-82
2022/04/13 01:55:38;;;;;;;20.48;13.77;;;11.30;1.00;;;;;;5011687;28;20104;-81
2022/04/13 01:58:03;;;;;;;27.15;13.30;;;11.20;1.00;;;;;;4994182;28;20054;-82
2022/04/13 02:00:29;;;;;;;25.40;14.25;;;11.30;1.00;;;;;;4995536;28;20050;-83
2022/04/13 02:02:55;;;;;;;21.70;13.43;;;11.10;1.00;;;;;;4993798;28;20034;-82
2022/04/13 02:05:20;;;;;;;25.55;13.65;;;11.00;1.00;;;;;;4993919;28;20085;-82
2022/04/13 02:07:46;;;;;;;22.52;13.57;;;10.90;1.00;;;;;;4994281;28;20438;-82
2022/04/13 02:10:12;;;;;;;21.88;13.25;;;10.80;1.00;;;;;;4995515;28;20027;-83
2022/04/13 02:12:38;;;;;;;25.33;14.10;;;10.70;1.00;;;;;;4996774;28;20076;-82
2022/04/13 02:15:05;;;;;;;21.90;13.73;;;10.70;1.00;;;;;;4995072;28;20050;-82
2022/04/13 02:17:30;;;;;;;24.77;14.13;;;10.70;1.00;;;;;;5002551;28;20026;-82
2022/04/13 02:19:56;;;;;;;26.33;14.00;;;10.70;1.00;;;;;;4995985;28;20027;-82
2022/04/13 02:22:22;;;;;;;25.15;13.77;;;10.70;1.00;;;;;;4996509;28;20105;-82
2022/04/13 02:24:47;;;;;;;22.73;13.77;;;10.70;1.00;;;;;;4995748;28;20023;-82
2022/04/13 02:27:13;;;;;;;22.98;13.55;;;10.60;1.00;;;;;;4994923;28;20512;-82
2022/04/13 02:29:39;;;;;;;23.20;13.30;;;10.60;1.00;;;;;;4995416;28;20478;-81
2022/04/13 02:32:06;;;;;;;21.77;13.00;;;10.50;1.00;;;;;;4996801;28;20030;-82
2022/04/13 02:34:32;;;;;;;19.95;12.85;;;10.40;1.00;;;;;;4995927;28;20023;-81
2022/04/13 02:36:58;;;;;;;24.50;13.95;;;10.40;1.00;;;;;;4994629;28;20027;-82
2022/04/13 02:39:23;;;;;;;20.73;13.95;;;10.40;2.90;;;;;;4994131;28;20045;-83
2022/04/13 02:41:49;;;;;;;22.67;13.32;;;10.40;45.40;;;;;;4981454;28;20542;-82
2022/04/13 02:44:15;;;;;;;25.63;13.93;;;10.50;64.60;;;;;;4983007;28;20027;-82
2022/04/13 02:46:41;;;;;;;25.60;13.55;;;10.50;75.20;;;;;;4994826;28;20022;-82
2022/04/13 02:49:07;;;;;;;23.33;13.90;;;10.50;89.60;;;;;;4995590;28;20019;-82
2022/04/13 02:51:33;;;;;;;24.60;13.80;;;10.50;91.00;;;;;;4996797;28;20058;-82
2022/04/13 02:53:58;;;;;;;29.23;14.63;;;10.40;91.60;;;;;;4998371;28;20034;-82
2022/04/13 02:56:24;;;;;;;25.30;14.23;;;10.40;96.90;;;;;;4998779;28;20074;-82
2022/04/13 02:58:49;;;;;;;24.58;13.95;;;10.30;99.90;;;;;;4998752;28;20027;-82
2022/04/13 03:01:15;;;;;;;21.75;13.63;;;10.30;99.90;;;;;;4998740;28;20053;-82
2022/04/13 03:03:41;;;;;;;24.42;14.02;;;10.30;99.90;;;;;;4998166;28;20393;-82
2022/04/13 03:06:06;;;;;;;26.85;14.38;;;10.40;99.90;;;;;;4998690;28;20486;-82
2022/04/13 03:08:32;;;;;;;23.77;14.05;;;10.50;99.90;;;;;;4996848;28;20023;-81
2022/04/13 03:10:58;;;;;;;21.38;13.02;;;10.50;99.90;;;;;;4998170;28;20105;-82
2022/04/13 03:13:23;;;;;;;23.08;13.10;;;10.50;99.90;;;;;;4997571;28;20054;-82
2022/04/13 03:15:49;;;;;;;23.55;13.35;;;10.50;99.90;;;;;;5001595;28;20022;-82
2022/04/13 03:18:14;;;;;;;24.83;13.13;;;10.40;99.90;;;;;;4998284;28;20026;-82
2022/04/13 03:20:40;;;;;;;22.25;13.27;;;10.40;99.90;;;;;;4998559;28;20019;-82
2022/04/13 03:23:05;;;;;;;22.48;13.55;;;10.50;99.90;;;;;;4998287;28;20113;-82
2022/04/13 03:25:33;;;;;;;22.63;13.55;;;10.50;99.90;;;;;;4997812;28;20101;-82
2022/04/13 03:27:58;;;;;;;22.80;13.00;;;10.60;98.80;;;;;;4995919;28;20504;-82
2022/04/13 03:30:24;;;;;;;23.15;13.35;;;10.60;97.00;;;;;;4995782;28;20105;-81
2022/04/13 03:32:51;;;;;;;24.75;13.82;;;10.60;99.90;;;;;;4995964;28;20220;-81
2022/04/13 03:35:17;;;;;;;22.15;13.90;;;10.60;96.10;;;;;;4996515;28;20031;-81
2022/04/13 03:37:42;;;;;;;26.70;13.40;;;10.60;99.90;;;;;;4995516;28;20022;-81
2022/04/13 03:40:10;;;;;;;24.77;13.55;;;10.70;99.90;;;;;;4995973;28;20026;-82
2022/04/13 03:42:37;;;;;;;22.63;13.43;;;10.70;99.90;;;;;;4997561;28;20026;-82
2022/04/13 03:45:11;;;;;;;22.83;13.65;;;10.70;99.90;;;;;;4997181;28;20030;-82
2022/04/13 03:47:39;;;;;;;27.02;14.10;;;10.80;99.90;;;;;;4995421;28;20113;-82
2022/04/13 03:50:06;;;;;;;26.67;14.60;;;10.80;99.90;;;;;;4996021;28;20023;-83
2022/04/13 03:52:33;;;;;;;23.30;13.68;;;10.80;99.90;;;;;;4996297;28;20033;-82
2022/04/13 03:54:59;;;;;;;27.35;14.25;;;10.80;99.90;;;;;;4996507;28;20033;-82
2022/04/13 03:57:24;;;;;;;27.00;13.80;;;10.80;99.40;;;;;;4994716;28;20026;-82
2022/04/13 03:59:50;;;;;;;20.77;13.27;;;10.80;99.90;;;;;;4993940;28;20478;-82
2022/04/13 04:02:16;;;;;;;24.17;13.32;;;10.80;99.90;;;;;;4994318;28;20033;-82
2022/04/13 04:04:42;;;;;;;31.42;14.48;;;10.80;86.70;;;;;;4979304;28;20066;-83
2022/04/13 04:07:24;;;;;;;23.13;12.65;;;10.80;1.00;;;;;;5006715;28;20054;-82
2022/04/13 04:09:50;;;;;;;23.58;13.32;;;10.80;17.70;;;;;;4996082;28;20037;-82
2022/04/13 04:12:19;;;;;;;22.17;12.68;;;10.80;69.20;;;;;;4995994;28;20390;-82
2022/04/13 04:14:44;;;;;;;24.25;13.63;;;10.70;17.60;;;;;;4995692;28;20053;-82
2022/04/13 04:17:10;;;;;;;25.40;13.95;;;10.70;34.10;;;;;;4996657;28;20109;-82
2022/04/13 04:19:35;;;;;;;22.55;14.07;;;10.70;64.50;;;;;;4996407;28;20027;-82
2022/04/13 04:22:01;;;;;;;22.35;14.27;;;10.60;91.70;;;;;;4994310;28;20133;-81
2022/04/13 04:24:27;;;;;;;24.50;13.65;;;10.50;99.90;;;;;;4996053;28;20029;-83
2022/04/13 04:26:53;;;;;;;23.40;13.50;;;10.50;99.90;;;;;;4997411;28;20058;-83
2022/04/13 04:29:18;;;;;;;23.10;13.60;;;10.50;99.90;;;;;;4996871;28;20034;-83
2022/04/13 04:31:50;;;;;;;21.67;13.20;;;10.40;99.90;;;;;;4986036;28;20038;-83
2022/04/13 04:34:17;;;;;;;22.65;13.70;;;10.30;99.90;;;;;;4995772;28;20035;-83
2022/04/13 04:36:47;;;;;;;25.95;12.75;;;10.20;99.90;;;;;;4990066;28;20033;-83
2022/04/13 04:39:13;;;;;;;24.60;13.45;;;10.10;99.90;;;;;;4977074;28;20030;-83
2022/04/13 04:41:40;;;;;;;21.63;14.45;;;10.10;99.90;;;;;;5003253;28;20026;-83
2022/04/13 04:44:06;;;;;;;21.50;13.85;;;10.20;99.90;;;;;;4991326;28;20406;-83
2022/04/13 04:46:32;;;;;;;25.83;14.15;;;10.20;99.90;;;;;;4994347;28;20030;-82
2022/04/13 04:48:57;;;;;;;24.83;13.77;;;10.20;99.90;;;;;;4992000;28;20506;-82
2022/04/13 04:51:23;;;;;;;24.08;13.68;;;10.30;99.90;;;;;;4993003;28;20455;-82
2022/04/13 04:53:48;;;;;;;28.17;13.65;;;10.30;99.90;;;;;;4994057;28;20777;-81
2022/04/13 04:56:15;;;;;;;26.13;14.68;;;10.50;99.90;;;;;;4994335;28;20447;-82
2022/04/13 04:58:41;;;;;;;21.05;13.15;;;10.50;99.90;;;;;;4995100;28;20054;-82
2022/04/13 05:01:06;;;;;;;24.75;14.32;;;10.50;99.90;;;;;;4994775;28;20066;-82
2022/04/13 05:03:33;;;;;;;26.83;14.07;;;10.50;99.90;;;;;;4995043;28;20054;-83
2022/04/13 05:05:58;;;;;;;23.73;13.57;;;10.50;99.90;;;;;;4993861;28;20032;-83
2022/04/13 05:08:24;;;;;;;26.33;14.38;;;10.50;99.90;;;;;;4994741;28;20097;-83
2022/04/13 05:10:53;;;;;;;24.13;14.40;;;10.60;99.90;;;;;;4995079;28;20026;-84
2022/04/13 05:13:19;;;;;;;25.95;14.48;;;10.60;99.90;;;;;;4995331;28;20393;-83
2022/04/13 05:15:45;;;;;;;22.38;13.18;;;10.60;99.90;;;;;;4993782;28;20034;-83
2022/04/13 05:18:12;;;;;;;24.58;15.30;;;10.70;99.90;;;;;;4995327;28;20058;-82
2022/04/13 05:20:38;;;;;;;25.60;13.82;;;10.70;99.90;;;;;;4993621;28;20121;-82
2022/04/13 05:23:03;;;;;;;25.25;13.52;;;10.80;99.90;;;;;;4994503;28;20066;-82
2022/04/13 05:25:29;;;;;;;22.42;13.85;;;10.80;99.90;;;;;;4977971;28;20029;-82
2022/04/13 05:27:54;;;;;;;22.60;13.63;;;10.90;99.90;;;;;;4994598;28;20023;-83
2022/04/13 05:30:21;;;;;;;23.02;13.15;;;11.00;99.90;;;;;;4993503;28;20129;-82
2022/04/13 05:32:53;;;;;;;25.95;13.13;;;11.00;99.90;;;;;;4993055;28;20113;-81
2022/04/13 05:35:19;;;;;;;24.77;13.55;;;11.00;99.90;;;;;;4994541;28;20034;-81
2022/04/13 05:37:45;;;;;;;23.33;13.13;;;11.10;99.90;;;;;;4994801;28;20029;-81
2022/04/13 05:40:12;;;;;;;24.65;13.50;;;11.20;99.90;;;;;;4993418;28;20066;-82
2022/04/13 05:42:37;;;;;;;24.27;13.55;;;11.20;99.90;;;;;;4994443;28;20029;-82
2022/04/13 05:45:03;;;;;;;21.92;13.27;;;11.30;99.90;;;;;;4993648;28;20452;-81
2022/04/13 05:47:29;;;;;;;24.85;15.15;;;11.30;99.90;;;;;;4994671;28;20022;-82
2022/04/13 05:49:55;;;;;;;25.73;14.38;;;11.40;99.90;;;;;;4994886;28;20030;-82
2022/04/13 05:52:20;;;;;;;27.83;15.25;;;11.40;99.90;;;;;;4994279;28;20054;-82
2022/04/13 05:54:46;;;;;;;28.17;18.52;;;11.40;99.90;;;;;;4993098;28;20398;-81
2022/04/13 05:57:12;;;;;;;31.25;21.20;;;11.50;99.90;;;;;;4994393;28;20098;-82
2022/04/13 05:59:38;;;;;;;30.35;17.10;;;11.50;99.90;;;;;;4993398;28;20046;-82
2022/04/13 06:02:04;;;;;;;22.13;13.63;;;11.50;99.90;;;;;;4994804;28;20061;-82
2022/04/13 06:04:29;;;;;;;24.40;14.38;;;11.50;99.90;;;;;;4997521;28;20085;-82
2022/04/13 06:06:55;;;;;;;30.15;14.88;;;11.60;99.90;;;;;;4993162;28;20031;-82
2022/04/13 06:09:24;;;;;;;23.67;13.52;;;11.60;99.90;;;;;;4994541;28;20105;-82
2022/04/13 06:11:50;;;;;;;21.73;12.95;;;11.70;99.90;;;;;;4993176;28;20057;-82
2022/04/13 06:14:16;;;;;;;24.45;14.68;;;11.70;99.90;;;;;;4992962;28;20430;-82
2022/04/13 06:16:41;;;;;;;25.23;13.65;;;11.90;92.90;;;;;;4994563;28;20030;-82
2022/04/13 06:19:07;;;;;;;21.70;12.85;;;11.90;73.50;;;;;;4994347;28;20026;-82
2022/04/13 06:21:33;;;;;;;21.42;14.07;;;12.00;72.20;;;;;;4992946;28;20027;-82
2022/04/13 06:23:58;;;;;;;26.50;12.88;;;12.10;69.20;;;;;;4996417;28;20088;-82
2022/04/13 06:26:24;;;;;;;23.48;13.55;;;12.20;67.10;;;;;;4997782;28;20027;-81
2022/04/13 06:28:49;;;;;;;30.02;13.27;;;12.30;63.70;;;;;;4996893;28;20026;-82
2022/04/13 06:31:15;;;;;;;27.13;12.88;;;12.50;46.20;;;;;;4997333;28;20033;-82
2022/04/13 06:33:41;;;;;;;24.02;13.27;;;12.60;34.60;;;;;;4997432;28;20113;-82
2022/04/13 06:36:08;;;;;;;18.63;12.20;;;12.90;7.30;;;;;;4997470;28;20030;-82
2022/04/13 06:38:34;;;;;;;22.77;12.35;;;13.20;1.00;;;;;;4996240;28;20018;-81
2022/04/13 06:41:00;;;;;;;21.25;12.80;;;13.50;1.00;;;;;;4996482;28;20018;-81
2022/04/13 06:43:25;;;;;;;22.40;11.80;;;13.70;1.00;;;;;;4997252;28;20027;-81
2022/04/13 06:45:53;;;;;;;23.55;11.98;;;14.00;1.00;;;;;;4997411;28;20054;-81
2022/04/13 06:48:19;;;;;;;20.05;11.55;;;14.10;1.00;;;;;;4997609;28;20037;-82
2022/04/13 06:50:45;;;;;;;21.05;11.32;;;14.30;1.00;;;;;;4996259;28;20382;-82
2022/04/13 06:53:10;;;;;;;19.52;12.02;;;14.90;1.00;;;;;;4985037;28;20027;-82
2022/04/13 06:55:39;;;;;;;16.65;10.43;;;19.20;99.90;;;;;;4989990;28;20101;-81
2022/04/13 06:58:05;;;;;;;18.40;10.13;;;21.30;99.90;;;;;;4997449;28;20014;-81
2022/04/13 07:00:30;;;;;;;18.52;10.30;;;20.30;99.90;;;;;;4997541;28;20029;-82
2022/04/13 07:02:57;;;;;;;19.90;10.60;;;19.10;99.90;;;;;;4997474;28;20026;-81
2022/04/13 07:05:24;;;;;;;18.50;10.10;;;18.60;99.90;;;;;;4996203;28;20058;-81
2022/04/13 07:07:49;;;;;;;17.15;10.63;;;21.90;99.90;;;;;;4997400;28;20105;-82
2022/04/13 07:10:15;;;;;;;14.98;9.23;;;26.10;99.90;;;;;;4997599;28;20058;-82
2022/04/13 07:12:41;;;;;;;17.67;9.88;;;28.10;99.90;;;;;;4996027;28;20077;-82
2022/04/13 07:15:07;;;;;;;15.52;9.65;;;30.40;99.90;;;;;;4998626;28;20061;-81
2022/04/13 07:17:32;;;;;;;16.60;9.48;;;29.10;99.90;;;;;;4998371;28;20031;-82
2022/04/13 07:19:58;;;;;;;14.07;9.20;;;26.80;99.90;;;;;;4998119;28;20022;-82
2022/04/13 07:22:24;;;;;;;14.77;8.15;;;26.30;99.90;;;;;;4998326;28;20069;-82
2022/04/13 07:24:50;;;;;;;15.25;8.50;;;28.80;99.90;;;;;;4996731;28;20027;-81
2022/04/13 07:27:16;;;;;;;13.25;7.90;;;30.30;99.90;;;;;;4998440;28;20450;-82
2022/04/13 07:29:42;;;;;;;13.27;8.93;;;31.10;99.90;;;;;;4998751;28;20458;-81
2022/04/13 07:32:07;;;;;;;12.23;8.07;;;28.70;99.90;;;;;;4999062;28;20177;-82
2022/04/13 07:34:34;;;;;;;13.30;8.45;;;26.40;99.90;;;;;;4998212;28;20026;-82
2022/04/13 07:36:59;;;;;;;14.27;8.60;;;29.60;99.90;;;;;;4998533;28;20164;-82
2022/04/13 07:39:25;;;;;;;17.73;9.10;;;31.10;99.90;;;;;;4999470;28;20066;-82
2022/04/13 07:41:51;;;;;;;15.80;8.90;;;32.40;99.90;;;;;;5020534;28;20040;-82
2022/04/13 07:44:18;;;;;;;12.18;8.02;;;33.50;99.90;;;;;;5004205;28;20046;-81
2022/04/13 07:46:43;;;;;;;15.00;7.65;;;32.40;99.90;;;;;;4999092;28;20073;-82
2022/04/13 07:49:09;;;;;;;11.45;7.53;;;32.30;99.90;;;;;;5000015;28;20026;-82
2022/04/13 07:51:35;;;;;;;13.38;7.65;;;32.70;99.90;;;;;;5000294;28;20109;-82
2022/04/13 07:54:01;;;;;;;15.90;8.60;;;29.60;99.90;;;;;;5002670;28;20038;-82
2022/04/13 07:56:28;;;;;;;16.95;7.82;;;27.60;99.90;;;;;;5000509;28;20022;-82
2022/04/13 07:58:53;;;;;;;15.85;7.90;;;28.20;99.90;;;;;;5002177;28;20022;-82
2022/04/13 08:01:19;;;;;;;13.63;7.80;;;31.10;99.90;;;;;;5000514;28;20479;-82
2022/04/13 08:03:44;;;;;;;13.70;7.95;;;31.10;99.90;;;;;;4998806;28;20034;-82
2022/04/13 08:06:13;;;;;;;12.25;7.30;;;28.50;99.90;;;;;;4999611;28;20114;-81
2022/04/13 08:08:39;;;;;;;15.32;7.80;;;27.00;99.90;;;;;;4999815;28;20029;-82
2022/04/13 08:11:05;;;;;;;12.88;7.88;;;28.60;99.90;;;;;;5000724;28;20033;-82
2022/04/13 08:13:32;;;;;;;16.77;8.23;;;32.40;99.90;;;;;;5001747;28;20057;-82
2022/04/13 08:15:57;;;;;;;13.40;7.97;;;33.00;99.90;;;;;;4997508;28;20041;-82
2022/04/13 08:18:23;;;;;;;14.55;8.05;;;33.10;99.90;;;;;;5001016;28;20026;-82
2022/04/13 08:20:49;;;;;;;9.77;7.38;;;33.40;99.90;;;;;;5002745;28;20040;-82
2022/04/13 08:23:15;;;;;;;10.25;7.10;;;34.40;99.90;;;;;;5004803;28;20054;-82
2022/04/13 08:25:41;;;;;;;13.20;7.68;;;35.00;99.90;;;;;;5005162;28;20027;-84
2022/04/13 08:28:06;;;;;;;11.95;7.78;;;35.30;99.90;;;;;;5010455;28;20030;-83
2022/04/13 08:30:32;;;;;;;12.05;7.57;;;36.70;99.90;;;;;;5012554;28;20054;-82
2022/04/13 08:33:00;;;;;;;12.45;7.72;;;38.30;99.90;;;;;;5011166;28;20030;-81
2022/04/13 08:35:26;;;;;;;12.55;8.23;;;36.50;99.90;;;;;;5001121;28;20038;-82
2022/04/13 08:37:52;;;;;;;13.48;7.90;;;36.90;99.90;;;;;;5003336;28;20038;-81
2022/04/13 08:40:19;;;;;;;11.93;8.30;;;36.50;99.90;;;;;;5005603;28;20072;-82
2022/04/13 08:42:48;;;;;;;12.27;8.02;;;36.40;99.90;;;;;;5004430;28;20045;-82
2022/04/13 08:45:30;;;;;;;12.40;8.23;;;37.10;99.90;;;;;;5004352;28;20030;-82
2022/04/13 08:47:59;;;;;;;10.65;7.53;;;36.40;99.90;;;;;;5002030;28;20030;-82
2022/04/13 08:50:29;;;;;;;12.70;7.70;;;34.50;99.90;;;;;;5001992;28;20037;-82
2022/04/13 08:53:02;;;;;;;16.17;8.20;;;34.80;99.90;;;;;;5004680;28;20289;-82
2022/04/13 08:55:30;;;;;;;11.18;7.60;;;35.10;99.90;;;;;;5003715;28;20041;-82
2022/04/13 08:58:11;;;;;;;10.15;8.15;;;34.60;99.90;;;;;;5002749;28;20113;-82
2022/04/13 09:00:41;;;;;;;13.30;8.38;;;34.60;99.90;;;;;;5004247;28;20601;-83
2022/04/13 09:03:44;;;;;;;11.85;8.13;;;34.70;99.90;;;;;;4988828;28;20065;-83
2022/04/13 09:06:11;;;;;;;13.02;7.05;;;35.70;99.90;;;;;;5004851;28;20037;-83
2022/04/13 09:08:49;;;;;;;11.73;7.55;;;36.00;99.90;;;;;;5003698;28;20030;-83
2022/04/13 09:11:16;;;;;;;12.95;7.85;;;36.00;99.90;;;;;;5005621;28;20022;-83
2022/04/13 09:13:44;;;;;;;14.18;8.02;;;36.00;99.90;;;;;;5006055;28;20050;-83
2022/04/13 09:16:11;;;;;;;13.75;7.97;;;36.70;99.90;;;;;;4993236;28;20037;-81
2022/04/13 09:18:36;;;;;;;15.93;8.02;;;36.70;99.90;;;;;;4995356;28;20267;-81
2022/04/13 09:21:02;;;;;;;14.38;7.50;;;35.80;99.90;;;;;;4996660;28;20107;-82
2022/04/13 09:23:31;;;;;;;10.90;7.03;;;35.20;99.90;;;;;;5004423;28;20026;-82
2022/04/13 09:25:58;;;;;;;11.48;6.68;;;33.80;99.90;;;;;;5003171;28;20069;-82
2022/04/13 09:28:25;;;;;;;11.75;6.85;;;31.80;99.90;;;;;;5005440;28;20082;-82
2022/04/13 09:30:54;;;;;;;14.30;6.82;;;30.70;99.90;;;;;;5002544;28;20022;-82
2022/04/13 09:33:21;;;;;;;10.50;6.50;;;29.70;99.90;;;;;;5002178;28;20034;-82
2022/04/13 09:35:47;;;;;;;10.63;6.25;;;29.20;99.90;;;;;;4997340;28;20661;-84
2022/04/13 09:38:12;;;;;;;9.30;6.22;;;29.50;99.90;;;;;;4996587;28;20026;-84
2022/04/13 09:40:41;;;;;;;11.48;7.00;;;29.20;99.90;;;;;;4997600;28;20033;-85
2022/04/13 09:43:10;;;;;;;11.75;6.45;;;28.70;99.90;;;;;;4997071;28;20035;-85
2022/04/13 09:45:39;;;;;;;12.15;6.68;;;28.00;99.90;;;;;;4976065;28;20034;-85
2022/04/13 09:48:06;;;;;;;9.48;6.22;;;27.50;99.90;;;;;;4974921;28;20042;-85
2022/04/13 09:50:32;;;;;;;10.15;6.63;;;26.50;99.90;;;;;;4994943;28;20679;-85
2022/04/13 09:53:03;;;;;;;11.82;6.05;;;26.30;99.90;;;;;;4995270;28;20414;-85
2022/04/13 09:55:29;;;;;;;13.70;6.45;;;25.40;99.90;;;;;;4994748;28;20486;-85
2022/04/13 09:58:16;;;;;;;12.07;7.38;;;25.30;99.90;;;;;;4996860;28;20090;-85
2022/04/13 10:00:44;;;;;;;12.25;6.32;;;25.00;99.90;;;;;;5000404;28;20030;-85
2022/04/13 10:03:17;;;;;;;9.50;6.45;;;24.70;99.90;;;;;;5003424;28;20391;-85
2022/04/13 10:05:51;;;;;;;13.65;7.43;;;24.70;99.90;;;;;;5019964;28;20034;-85
2022/04/13 10:08:22;;;;;;;12.40;7.55;;;24.70;99.90;;;;;;5014816;28;20014;-87
2022/04/13 10:10:49;;;;;;;10.75;6.53;;;25.10;99.90;;;;;;5020788;28;20027;-86
2022/04/13 10:13:38;;;;;;;16.27;7.25;;;25.50;99.90;;;;;;5020899;28;20030;-85
2022/04/13 10:16:09;;;;;;;12.95;6.88;;;25.00;99.90;;;;;;5037177;28;20021;-86
2022/04/13 10:18:50;;;;;;;14.02;6.78;;;25.30;99.90;;;;;;5024663;28;20037;-86
2022/04/13 10:21:52;;;;;;;10.80;6.65;;;26.00;99.90;;;;;;5013325;28;20102;-85
2022/04/13 10:24:40;;;;;;;12.75;6.90;;;25.40;99.90;;;;;;5010808;28;20006;-84
2022/04/13 10:27:19;;;;;;;9.20;6.47;;;25.70;99.90;;;;;;5019895;28;20022;-85
2022/04/13 10:29:46;;;;;;;11.27;6.47;;;26.30;99.90;;;;;;4998897;28;20015;-85
2022/04/13 10:32:17;;;;;;;10.48;6.43;;;25.90;99.90;;;;;;5011851;28;20057;-86
2022/04/13 10:34:45;;;;;;;13.32;6.85;;;25.50;99.90;;;;;;5016585;28;20018;-85
2022/04/13 10:37:12;;;;;;;13.38;7.10;;;24.50;99.90;;;;;;5014098;28;20078;-86
2022/04/13 10:39:41;;;;;;;14.48;7.00;;;24.20;99.90;;;;;;5009950;28;20037;-84
2022/04/13 10:42:08;;;;;;;10.40;6.82;;;23.90;99.90;;;;;;5005777;28;20049;-85
2022/04/13 10:44:41;;;;;;;9.48;6.30;;;23.40;99.90;;;;;;5003998;28;20034;-85
2022/04/13 10:47:09;;;;;;;13.55;7.47;;;23.00;99.90;;;;;;5001024;28;20034;-84
2022/04/13 10:49:51;;;;;;;13.10;7.63;;;22.70;99.90;;;;;;5001101;28;20386;-84
2022/04/13 10:52:23;;;;;;;10.68;6.82;;;22.80;99.90;;;;;;5001611;28;20135;-85
2022/04/13 10:55:07;;;;;;;14.95;7.93;;;22.80;99.90;;;;;;5002073;28;20023;-85
2022/04/13 10:57:40;;;;;;;12.50;7.45;;;22.80;99.90;;;;;;5002609;28;20069;-85
2022/04/13 11:00:06;;;;;;;11.63;7.45;;;22.70;99.90;;;;;;5003789;28;20030;-85
2022/04/13 11:02:44;;;;;;;11.32;7.40;;;22.50;99.90;;;;;;4997791;28;20037;-85
2022/04/13 11:05:10;;;;;;;11.68;6.82;;;22.50;99.90;;;;;;4995742;28;20038;-84
2022/04/13 11:07:37;;;;;;;13.90;6.72;;;22.30;99.90;;;;;;5003251;28;20048;-85
2022/04/13 11:10:07;;;;;;;11.95;6.82;;;22.20;99.90;;;;;;4991709;28;20053;-85
2022/04/13 11:12:33;;;;;;;10.23;5.88;;;22.00;99.90;;;;;;4985384;28;20081;-85
2022/04/13 11:15:02;;;;;;;12.13;6.80;;;21.70;99.90;;;;;;5001746;28;20050;-85
2022/04/13 11:17:28;;;;;;;12.68;7.05;;;21.40;99.90;;;;;;5001423;28;20391;-85
2022/04/13 11:20:17;;;;;;;12.70;6.82;;;21.20;99.90;;;;;;5012786;28;20028;-85
2022/04/13 11:22:43;;;;;;;10.82;6.78;;;21.20;99.90;;;;;;5005950;28;20039;-85
2022/04/13 11:25:10;;;;;;;12.20;6.25;;;21.40;99.90;;;;;;5007291;28;20097;-85
2022/04/13 11:27:53;;;;;;;13.05;6.75;;;21.70;99.90;;;;;;5008249;28;20083;-85
2022/04/13 11:30:19;;;;;;;13.00;6.78;;;21.80;99.90;;;;;;4987645;28;20027;-86
2022/04/13 11:32:47;;;;;;;12.30;7.60;;;21.60;99.90;;;;;;5000942;28;20034;-85
2022/04/13 11:35:45;;;;;;;14.77;7.72;;;21.30;99.90;;;;;;5003761;28;20026;-85
2022/04/13 11:38:11;;;;;;;10.65;6.63;;;21.00;99.90;;;;;;5009614;28;20045;-84
2022/04/13 11:41:03;;;;;;;9.88;6.88;;;21.00;99.90;;;;;;5007584;28;20018;-85
2022/04/13 11:43:29;;;;;;;12.77;6.88;;;21.30;99.90;;;;;;5009420;28;20030;-85
2022/04/13 11:45:54;;;;;;;13.95;7.60;;;21.40;99.90;;;;;;4985629;28;20038;-85
2022/04/13 11:48:35;;;;;;;14.85;7.68;;;21.70;99.90;;;;;;5000899;28;20030;-84
2022/04/13 11:51:25;;;;;;;12.38;8.13;;;21.40;99.90;;;;;;4996813;28;20065;-85
2022/04/13 11:53:54;;;;;;;12.43;7.93;;;21.00;99.90;;;;;;4998165;28;20045;-85
2022/04/13 11:56:50;;;;;;;14.60;7.70;;;20.90;99.90;;;;;;4997728;28;20531;-85
2022/04/13 11:59:17;;;;;;;12.68;7.63;;;20.80;99.90;;;;;;4995698;28;20429;-85
2022/04/13 12:01:53;;;;;;;16.05;7.90;;;20.70;99.90;;;;;;5007664;28;20056;-85
2022/04/13 12:04:22;;;;;;;10.45;8.32;;;20.70;99.90;;;;;;5007386;28;20045;-85
2022/04/13 12:06:50;;;;;;;11.85;7.80;;;20.70;99.90;;;;;;5008365;28;20026;-85
2022/04/13 12:09:17;;;;;;;11.40;7.90;;;20.50;99.90;;;;;;5008014;28;20021;-84
2022/04/13 12:11:45;;;;;;;12.20;7.22;;;20.40;99.90;;;;;;5004097;28;20065;-85
2022/04/13 12:14:23;;;;;;;14.75;6.80;;;20.50;99.90;;;;;;5005853;28;20054;-84
2022/04/13 12:16:50;;;;;;;11.15;7.63;;;20.80;99.90;;;;;;5008256;28;20031;-85
2022/04/13 12:19:15;;;;;;;14.25;8.25;;;20.80;99.90;;;;;;5003363;28;20050;-85
2022/04/13 12:21:41;;;;;;;13.43;7.05;;;21.30;99.90;;;;;;4990325;28;20367;-84
2022/04/13 12:24:09;;;;;;;10.45;6.63;;;21.50;99.90;;;;;;4984897;28;20537;-84
2022/04/13 12:26:42;;;;;;;17.35;7.30;;;21.90;99.90;;;;;;4993340;28;20030;-84
2022/04/13 12:29:14;;;;;;;13.82;6.68;;;22.10;99.90;;;;;;4999514;28;20066;-85
2022/04/13 12:31:51;;;;;;;13.90;7.82;;;22.20;99.90;;;;;;5000338;28;20064;-84
2022/04/13 12:34:18;;;;;;;12.52;7.35;;;22.20;99.90;;;;;;4991042;28;20753;-85
2022/04/13 12:36:51;;;;;;;13.73;6.28;;;22.10;99.90;;;;;;4978363;28;20031;-85
2022/04/13 12:39:17;;;;;;;13.00;6.35;;;21.90;99.90;;;;;;4982436;28;20109;-83